sensor_id;sensor_type;location;lat;lon;timestamp;pressure;altitude;pressure_sealevel;temperature;humidity
67373;BME280;54257;54.496;18.412;2023-01-30T00:01:46;98666.41;;;1.47;100.00
67373;BME280;54257;54.496;18.412;2023-01-30T00:04:13;98665.20;;;1.46;100.00
67373;BME280;54257;54.496;18.412;2023-01-30T00:06:41;98658.45;;;1.46;100.00
67373;BME280;54257;54.496;18.412;2023-01-30T00:09:11;98650.02;;;1.45;100.00
67373;BME280;54257;54.496;18.412;2023-01-30T00:11:39;98639.39;;;1.44;100.00
67373;BME280;54257;54.496;18.412;2023-01-30T00:14:07;98634.69;;;1.44;100.00
67373;BME280;54257;54.496;18.412;2023-01-30T00:16:36;98631.00;;;1.44;100.00
67373;BME280;54257;54.496;18.412;2023-01-30T00:19:04;98619.17;;;1.43;100.00
67373;BME280;54257;54.496;18.412;2023-01-30T00:21:31;98611.58;;;1.42;100.00
67373;BME280;54257;54.496;18.412;2023-01-30T00:23:59;98608.67;;;1.40;100.00
67373;BME280;54257;54.496;18.412;2023-01-30T00:26:27;98606.11;;;1.39;100.00
67373;BME280;54257;54.496;18.412;2023-01-30T00:28:54;98601.92;;;1.39;100.00
67373;BME280;54257;54.496;18.412;2023-01-30T00:31:22;98586.77;;;1.38;100.00
67373;BME280;54257;54.496;18.412;2023-01-30T00:33:49;98582.49;;;1.37;100.00
67373;BME280;54257;54.496;18.412;2023-01-30T00:36:16;98579.96;;;1.36;100.00
67373;BME280;54257;54.496;18.412;2023-01-30T00:38:43;98576.05;;;1.35;100.00
67373;BME280;54257;54.496;18.412;2023-01-30T00:41:10;98564.11;;;1.35;100.00
67373;BME280;54257;54.496;18.412;2023-01-30T00:43:39;98569.44;;;1.33;100.00
67373;BME280;54257;54.496;18.412;2023-01-30T00:46:32;98561.33;;;1.32;100.00
67373;BME280;54257;54.496;18.412;2023-01-30T00:49:20;98554.39;;;1.31;100.00
67373;BME280;54257;54.496;18.412;2023-01-30T00:51:47;98551.84;;;1.30;100.00
67373;BME280;54257;54.496;18.412;2023-01-30T00:54:14;98548.91;;;1.28;100.00
67373;BME280;54257;54.496;18.412;2023-01-30T00:56:40;98540.33;;;1.27;100.00
67373;BME280;54257;54.496;18.412;2023-01-30T00:59:08;98527.54;;;1.27;100.00
67373;BME280;54257;54.496;18.412;2023-01-30T01:01:35;98525.36;;;1.27;100.00
67373;BME280;54257;54.496;18.412;2023-01-30T01:04:03;98513.91;;;1.27;100.00
67373;BME280;54257;54.496;18.412;2023-01-30T01:06:30;98503.29;;;1.25;100.00
67373;BME280;54257;54.496;18.412;2023-01-30T01:08:58;98493.36;;;1.25;100.00
67373;BME280;54257;54.496;18.412;2023-01-30T01:11:26;98488.83;;;1.25;100.00
67373;BME280;54257;54.496;18.412;2023-01-30T01:13:55;98478.38;;;1.25;100.00
67373;BME280;54257;54.496;18.412;2023-01-30T01:16:24;98474.30;;;1.23;100.00
67373;BME280;54257;54.496;18.412;2023-01-30T01:18:52;98467.73;;;1.23;100.00
67373;BME280;54257;54.496;18.412;2023-01-30T01:21:20;98458.08;;;1.21;100.00
67373;BME280;54257;54.496;18.412;2023-01-30T01:23:55;98451.89;;;1.22;100.00
67373;BME280;54257;54.496;18.412;2023-01-30T01:26:22;98446.77;;;1.19;100.00
67373;BME280;54257;54.496;18.412;2023-01-30T01:28:54;98439.54;;;1.20;100.00
67373;BME280;54257;54.496;18.412;2023-01-30T01:31:21;98428.40;;;1.18;100.00
67373;BME280;54257;54.496;18.412;2023-01-30T01:33:50;98424.50;;;1.17;100.00
67373;BME280;54257;54.496;18.412;2023-01-30T01:36:17;98413.05;;;1.16;100.00
67373;BME280;54257;54.496;18.412;2023-01-30T01:38:46;98404.92;;;1.13;100.00
67373;BME280;54257;54.496;18.412;2023-01-30T01:41:15;98390.08;;;1.12;100.00
67373;BME280;54257;54.496;18.412;2023-01-30T01:44:02;98380.00;;;1.13;100.00
67373;BME280;54257;54.496;18.412;2023-01-30T01:46:39;98380.30;;;1.11;100.00
67373;BME280;54257;54.496;18.412;2023-01-30T01:49:24;98370.71;;;1.11;100.00
67373;BME280;54257;54.496;18.412;2023-01-30T01:52:07;98368.34;;;1.10;100.00
67373;BME280;54257;54.496;18.412;2023-01-30T01:54:44;98364.80;;;1.10;100.00
67373;BME280;54257;54.496;18.412;2023-01-30T01:57:24;98361.95;;;1.10;100.00
67373;BME280;54257;54.496;18.412;2023-01-30T02:00:00;98358.06;;;1.09;100.00
67373;BME280;54257;54.496;18.412;2023-01-30T02:02:32;98341.75;;;1.09;100.00
67373;BME280;54257;54.496;18.412;2023-01-30T02:05:00;98343.27;;;1.10;100.00
67373;BME280;54257;54.496;18.412;2023-01-30T02:10:00;98319.73;;;1.09;100.00
67373;BME280;54257;54.496;18.412;2023-01-30T02:12:27;98318.54;;;1.08;100.00
67373;BME280;54257;54.496;18.412;2023-01-30T02:14:57;98311.95;;;1.07;100.00
67373;BME280;54257;54.496;18.412;2023-01-30T02:17:25;98317.64;;;1.06;100.00
67373;BME280;54257;54.496;18.412;2023-01-30T02:25:51;98312.59;;;1.06;100.00
67373;BME280;54257;54.496;18.412;2023-01-30T02:33:54;98290.73;;;1.06;100.00
67373;BME280;54257;54.496;18.412;2023-01-30T02:36:37;98284.30;;;1.04;100.00
67373;BME280;54257;54.496;18.412;2023-01-30T02:42:30;98277.54;;;1.03;100.00
67373;BME280;54257;54.496;18.412;2023-01-30T02:45:22;98260.04;;;1.02;100.00
67373;BME280;54257;54.496;18.412;2023-01-30T02:50:36;98252.71;;;0.98;100.00
67373;BME280;54257;54.496;18.412;2023-01-30T02:53:06;98250.33;;;0.97;100.00
67373;BME280;54257;54.496;18.412;2023-01-30T02:55:34;98240.69;;;0.95;100.00
67373;BME280;54257;54.496;18.412;2023-01-30T02:58:03;98224.19;;;0.94;100.00
67373;BME280;54257;54.496;18.412;2023-01-30T03:11:07;98206.10;;;0.90;100.00
67373;BME280;54257;54.496;18.412;2023-01-30T03:13:43;98188.45;;;0.90;100.00
67373;BME280;54257;54.496;18.412;2023-01-30T03:16:35;98180.69;;;0.89;100.00
67373;BME280;54257;54.496;18.412;2023-01-30T03:19:08;98174.27;;;0.88;100.00
67373;BME280;54257;54.496;18.412;2023-01-30T03:21:43;98170.23;;;0.88;100.00
67373;BME280;54257;54.496;18.412;2023-01-30T03:24:11;98170.20;;;0.86;100.00
67373;BME280;54257;54.496;18.412;2023-01-30T03:26:46;98165.61;;;0.83;100.00
67373;BME280;54257;54.496;18.412;2023-01-30T03:29:15;98152.48;;;0.82;100.00
67373;BME280;54257;54.496;18.412;2023-01-30T03:31:42;98159.45;;;0.80;100.00
67373;BME280;54257;54.496;18.412;2023-01-30T03:34:09;98162.46;;;0.79;100.00
67373;BME280;54257;54.496;18.412;2023-01-30T03:36:36;98144.27;;;0.77;100.00
67373;BME280;54257;54.496;18.412;2023-01-30T03:39:03;98140.06;;;0.76;100.00
67373;BME280;54257;54.496;18.412;2023-01-30T03:41:30;98135.16;;;0.75;100.00
67373;BME280;54257;54.496;18.412;2023-01-30T03:43:57;98138.64;;;0.73;100.00
67373;BME280;54257;54.496;18.412;2023-01-30T03:46:24;98128.00;;;0.71;100.00
67373;BME280;54257;54.496;18.412;2023-01-30T03:48:51;98115.85;;;0.69;100.00
67373;BME280;54257;54.496;18.412;2023-01-30T03:51:18;98113.81;;;0.68;100.00
67373;BME280;54257;54.496;18.412;2023-01-30T03:53:45;98112.90;;;0.66;100.00
67373;BME280;54257;54.496;18.412;2023-01-30T03:56:12;98112.00;;;0.64;100.00
67373;BME280;54257;54.496;18.412;2023-01-30T03:58:39;98108.83;;;0.64;100.00
67373;BME280;54257;54.496;18.412;2023-01-30T04:01:06;98097.73;;;0.64;100.00
67373;BME280;54257;54.496;18.412;2023-01-30T04:03:34;98091.05;;;0.65;100.00
67373;BME280;54257;54.496;18.412;2023-01-30T04:06:01;98072.61;;;0.66;100.00
67373;BME280;54257;54.496;18.412;2023-01-30T04:08:28;98072.14;;;0.68;100.00
67373;BME280;54257;54.496;18.412;2023-01-30T04:10:55;98061.94;;;0.70;100.00
67373;BME280;54257;54.496;18.412;2023-01-30T04:13:22;98053.41;;;0.72;100.00
67373;BME280;54257;54.496;18.412;2023-01-30T04:15:49;98036.83;;;0.73;100.00
67373;BME280;54257;54.496;18.412;2023-01-30T04:18:16;98035.37;;;0.75;100.00
67373;BME280;54257;54.496;18.412;2023-01-30T04:20:44;98036.05;;;0.76;100.00
67373;BME280;54257;54.496;18.412;2023-01-30T04:23:12;98028.34;;;0.77;100.00
67373;BME280;54257;54.496;18.412;2023-01-30T04:25:39;98021.48;;;0.79;100.00
67373;BME280;54257;54.496;18.412;2023-01-30T04:28:06;98013.11;;;0.80;100.00
67373;BME280;54257;54.496;18.412;2023-01-30T04:30:32;98003.55;;;0.80;100.00
67373;BME280;54257;54.496;18.412;2023-01-30T04:33:00;98003.08;;;0.81;100.00
67373;BME280;54257;54.496;18.412;2023-01-30T04:35:27;97994.67;;;0.81;100.00
67373;BME280;54257;54.496;18.412;2023-01-30T04:37:53;97989.81;;;0.81;100.00
67373;BME280;54257;54.496;18.412;2023-01-30T04:40:21;97984.73;;;0.81;100.00
67373;BME280;54257;54.496;18.412;2023-01-30T04:42:48;97982.28;;;0.82;100.00
67373;BME280;54257;54.496;18.412;2023-01-30T04:45:15;97964.31;;;0.83;100.00
67373;BME280;54257;54.496;18.412;2023-01-30T04:47:42;97955.43;;;0.85;100.00
67373;BME280;54257;54.496;18.412;2023-01-30T04:50:11;97955.44;;;0.84;100.00
67373;BME280;54257;54.496;18.412;2023-01-30T04:52:39;97952.44;;;0.86;100.00
67373;BME280;54257;54.496;18.412;2023-01-30T04:55:06;97952.46;;;0.88;100.00
67373;BME280;54257;54.496;18.412;2023-01-30T04:57:34;97940.06;;;0.89;100.00
67373;BME280;54257;54.496;18.412;2023-01-30T05:00:01;97936.58;;;0.91;100.00
67373;BME280;54257;54.496;18.412;2023-01-30T05:02:30;97944.18;;;0.93;100.00
67373;BME280;54257;54.496;18.412;2023-01-30T05:04:58;97922.02;;;0.93;100.00
67373;BME280;54257;54.496;18.412;2023-01-30T05:07:24;97918.52;;;0.95;100.00
67373;BME280;54257;54.496;18.412;2023-01-30T05:09:52;97907.59;;;0.95;100.00
67373;BME280;54257;54.496;18.412;2023-01-30T05:12:19;97906.23;;;0.95;100.00
67373;BME280;54257;54.496;18.412;2023-01-30T05:14:46;97903.39;;;0.95;100.00
67373;BME280;54257;54.496;18.412;2023-01-30T05:17:13;97903.70;;;0.94;100.00
67373;BME280;54257;54.496;18.412;2023-01-30T05:19:41;97895.95;;;0.93;100.00
67373;BME280;54257;54.496;18.412;2023-01-30T05:22:08;97886.36;;;0.92;100.00
67373;BME280;54257;54.496;18.412;2023-01-30T05:24:36;97884.67;;;0.92;100.00
67373;BME280;54257;54.496;18.412;2023-01-30T05:27:04;97881.91;;;0.89;100.00
67373;BME280;54257;54.496;18.412;2023-01-30T05:29:32;97872.36;;;0.90;100.00
67373;BME280;54257;54.496;18.412;2023-01-30T05:31:59;97864.47;;;0.90;100.00
67373;BME280;54257;54.496;18.412;2023-01-30T05:34:27;97868.27;;;0.88;100.00
67373;BME280;54257;54.496;18.412;2023-01-30T05:36:55;97868.79;;;0.88;100.00
67373;BME280;54257;54.496;18.412;2023-01-30T05:39:22;97861.05;;;0.88;100.00
67373;BME280;54257;54.496;18.412;2023-01-30T05:41:49;97855.64;;;0.85;100.00
67373;BME280;54257;54.496;18.412;2023-01-30T05:44:17;97852.27;;;0.85;100.00
67373;BME280;54257;54.496;18.412;2023-01-30T05:46:44;97850.42;;;0.85;100.00
67373;BME280;54257;54.496;18.412;2023-01-30T05:49:11;97854.79;;;0.84;100.00
67373;BME280;54257;54.496;18.412;2023-01-30T05:51:39;97848.59;;;0.85;100.00
67373;BME280;54257;54.496;18.412;2023-01-30T05:54:07;97848.23;;;0.84;100.00
67373;BME280;54257;54.496;18.412;2023-01-30T05:56:34;97845.04;;;0.84;100.00
67373;BME280;54257;54.496;18.412;2023-01-30T05:59:02;97838.79;;;0.82;100.00
67373;BME280;54257;54.496;18.412;2023-01-30T06:01:29;97838.27;;;0.81;100.00
67373;BME280;54257;54.496;18.412;2023-01-30T06:03:57;97835.05;;;0.80;100.00
67373;BME280;54257;54.496;18.412;2023-01-30T06:06:25;97829.61;;;0.78;100.00
67373;BME280;54257;54.496;18.412;2023-01-30T06:08:55;97840.17;;;0.76;100.00
67373;BME280;54257;54.496;18.412;2023-01-30T06:11:22;97836.95;;;0.74;100.00
67373;BME280;54257;54.496;18.412;2023-01-30T06:13:50;97836.42;;;0.73;100.00
67373;BME280;54257;54.496;18.412;2023-01-30T06:16:17;97834.91;;;0.73;100.00
67373;BME280;54257;54.496;18.412;2023-01-30T06:18:45;97836.44;;;0.74;100.00
67373;BME280;54257;54.496;18.412;2023-01-30T06:21:15;97839.13;;;0.74;100.00
67373;BME280;54257;54.496;18.412;2023-01-30T06:23:43;97832.75;;;0.75;100.00
67373;BME280;54257;54.496;18.412;2023-01-30T06:26:11;97826.73;;;0.76;100.00
67373;BME280;54257;54.496;18.412;2023-01-30T06:28:38;97828.05;;;0.75;100.00
67373;BME280;54257;54.496;18.412;2023-01-30T06:31:06;97823.83;;;0.73;100.00
67373;BME280;54257;54.496;18.412;2023-01-30T06:33:34;97825.48;;;0.73;100.00
67373;BME280;54257;54.496;18.412;2023-01-30T06:36:01;97820.77;;;0.72;100.00
67373;BME280;54257;54.496;18.412;2023-01-30T06:38:28;97819.45;;;0.73;100.00
67373;BME280;54257;54.496;18.412;2023-01-30T06:40:56;97811.25;;;0.74;100.00
67373;BME280;54257;54.496;18.412;2023-01-30T06:43:23;97803.38;;;0.76;100.00
67373;BME280;54257;54.496;18.412;2023-01-30T06:45:50;97797.34;;;0.77;100.00
67373;BME280;54257;54.496;18.412;2023-01-30T06:48:18;97800.73;;;0.79;100.00
67373;BME280;54257;54.496;18.412;2023-01-30T06:50:46;97789.66;;;0.80;100.00
67373;BME280;54257;54.496;18.412;2023-01-30T06:53:14;97793.21;;;0.81;100.00
67373;BME280;54257;54.496;18.412;2023-01-30T06:55:42;97803.13;;;0.81;100.00
67373;BME280;54257;54.496;18.412;2023-01-30T06:58:12;97792.55;;;0.81;100.00
67373;BME280;54257;54.496;18.412;2023-01-30T07:00:41;97791.58;;;0.82;100.00
67373;BME280;54257;54.496;18.412;2023-01-30T07:03:11;97789.39;;;0.82;100.00
67373;BME280;54257;54.496;18.412;2023-01-30T07:05:39;97784.85;;;0.82;100.00
67373;BME280;54257;54.496;18.412;2023-01-30T07:08:06;97781.03;;;0.84;100.00
67373;BME280;54257;54.496;18.412;2023-01-30T07:10:33;97788.77;;;0.85;100.00
67373;BME280;54257;54.496;18.412;2023-01-30T07:13:02;97779.02;;;0.85;100.00
67373;BME280;54257;54.496;18.412;2023-01-30T07:15:30;97781.39;;;0.87;100.00
67373;BME280;54257;54.496;18.412;2023-01-30T07:17:58;97779.06;;;0.88;100.00
67373;BME280;54257;54.496;18.412;2023-01-30T07:20:26;97784.80;;;0.89;100.00
67373;BME280;54257;54.496;18.412;2023-01-30T07:22:54;97781.00;;;0.92;100.00
67373;BME280;54257;54.496;18.412;2023-01-30T07:25:23;97789.45;;;0.94;100.00
67373;BME280;54257;54.496;18.412;2023-01-30T07:27:58;97788.96;;;0.96;100.00
67373;BME280;54257;54.496;18.412;2023-01-30T07:30:29;97782.77;;;0.97;100.00
67373;BME280;54257;54.496;18.412;2023-01-30T07:32:59;97784.65;;;0.98;100.00
67373;BME280;54257;54.496;18.412;2023-01-30T07:35:28;97790.58;;;1.01;100.00
67373;BME280;54257;54.496;18.412;2023-01-30T07:37:56;97788.42;;;1.03;100.00
67373;BME280;54257;54.496;18.412;2023-01-30T07:40:25;97793.32;;;1.04;100.00
67373;BME280;54257;54.496;18.412;2023-01-30T07:43:00;97787.64;;;1.06;100.00
67373;BME280;54257;54.496;18.412;2023-01-30T07:45:45;97792.25;;;1.09;100.00
67373;BME280;54257;54.496;18.412;2023-01-30T07:48:15;97793.45;;;1.11;100.00
67373;BME280;54257;54.496;18.412;2023-01-30T07:50:43;97786.10;;;1.13;100.00
67373;BME280;54257;54.496;18.412;2023-01-30T07:53:13;97778.91;;;1.15;100.00
67373;BME280;54257;54.496;18.412;2023-01-30T07:55:41;97778.77;;;1.17;100.00
67373;BME280;54257;54.496;18.412;2023-01-30T07:58:16;97782.67;;;1.19;100.00
67373;BME280;54257;54.496;18.412;2023-01-30T08:00:43;97783.73;;;1.22;100.00
67373;BME280;54257;54.496;18.412;2023-01-30T08:03:15;97783.98;;;1.26;100.00
67373;BME280;54257;54.496;18.412;2023-01-30T08:05:46;97788.44;;;1.30;100.00
67373;BME280;54257;54.496;18.412;2023-01-30T08:08:13;97786.30;;;1.33;100.00
67373;BME280;54257;54.496;18.412;2023-01-30T08:10:41;97793.06;;;1.36;100.00
67373;BME280;54257;54.496;18.412;2023-01-30T08:13:07;97784.50;;;1.37;100.00
67373;BME280;54257;54.496;18.412;2023-01-30T08:15:34;97781.20;;;1.39;100.00
67373;BME280;54257;54.496;18.412;2023-01-30T08:18:02;97783.05;;;1.40;100.00
67373;BME280;54257;54.496;18.412;2023-01-30T08:20:29;97785.77;;;1.40;100.00
67373;BME280;54257;54.496;18.412;2023-01-30T08:22:57;97775.63;;;1.39;100.00
67373;BME280;54257;54.496;18.412;2023-01-30T08:25:25;97774.73;;;1.36;100.00
67373;BME280;54257;54.496;18.412;2023-01-30T08:27:53;97771.35;;;1.34;100.00
67373;BME280;54257;54.496;18.412;2023-01-30T08:30:21;97771.30;;;1.32;100.00
67373;BME280;54257;54.496;18.412;2023-01-30T08:32:49;97764.72;;;1.30;100.00
67373;BME280;54257;54.496;18.412;2023-01-30T08:35:16;97763.64;;;1.26;100.00
67373;BME280;54257;54.496;18.412;2023-01-30T08:37:43;97760.89;;;1.23;100.00
67373;BME280;54257;54.496;18.412;2023-01-30T08:40:13;97755.14;;;1.21;100.00
67373;BME280;54257;54.496;18.412;2023-01-30T08:42:43;97759.20;;;1.22;100.00
67373;BME280;54257;54.496;18.412;2023-01-30T08:45:11;97757.23;;;1.25;100.00
67373;BME280;54257;54.496;18.412;2023-01-30T08:47:39;97763.14;;;1.27;100.00
67373;BME280;54257;54.496;18.412;2023-01-30T08:50:06;97754.09;;;1.29;100.00
67373;BME280;54257;54.496;18.412;2023-01-30T08:52:34;97755.52;;;1.34;100.00
67373;BME280;54257;54.496;18.412;2023-01-30T08:55:01;97756.96;;;1.39;100.00
67373;BME280;54257;54.496;18.412;2023-01-30T08:57:31;97751.13;;;1.42;100.00
67373;BME280;54257;54.496;18.412;2023-01-30T08:59:59;97751.52;;;1.46;100.00
67373;BME280;54257;54.496;18.412;2023-01-30T09:02:26;97746.88;;;1.50;100.00
67373;BME280;54257;54.496;18.412;2023-01-30T09:04:57;97740.86;;;1.53;100.00
67373;BME280;54257;54.496;18.412;2023-01-30T09:07:25;97733.52;;;1.55;100.00
67373;BME280;54257;54.496;18.412;2023-01-30T09:09:54;97726.84;;;1.59;100.00
67373;BME280;54257;54.496;18.412;2023-01-30T09:12:27;97722.55;;;1.64;100.00
67373;BME280;54257;54.496;18.412;2023-01-30T09:14:54;97719.46;;;1.72;100.00
67373;BME280;54257;54.496;18.412;2023-01-30T09:17:25;97724.79;;;1.79;100.00
67373;BME280;54257;54.496;18.412;2023-01-30T09:19:54;97721.16;;;1.85;100.00
67373;BME280;54257;54.496;18.412;2023-01-30T09:22:21;97712.84;;;1.91;100.00
67373;BME280;54257;54.496;18.412;2023-01-30T09:24:48;97710.58;;;1.98;100.00
67373;BME280;54257;54.496;18.412;2023-01-30T09:27:16;97707.66;;;2.05;100.00
67373;BME280;54257;54.496;18.412;2023-01-30T09:29:43;97711.30;;;2.13;100.00
67373;BME280;54257;54.496;18.412;2023-01-30T09:32:10;97716.08;;;2.19;100.00
67373;BME280;54257;54.496;18.412;2023-01-30T09:34:37;97702.34;;;2.24;100.00
67373;BME280;54257;54.496;18.412;2023-01-30T09:37:04;97709.16;;;2.30;100.00
67373;BME280;54257;54.496;18.412;2023-01-30T09:39:33;97707.82;;;2.32;100.00
67373;BME280;54257;54.496;18.412;2023-01-30T09:47:12;97716.73;;;2.44;100.00
67373;BME280;54257;54.496;18.412;2023-01-30T09:50:16;97722.70;;;2.50;100.00
67373;BME280;54257;54.496;18.412;2023-01-30T09:52:58;97721.84;;;2.63;100.00
67373;BME280;54257;54.496;18.412;2023-01-30T09:55:30;97725.31;;;2.71;100.00
67373;BME280;54257;54.496;18.412;2023-01-30T09:58:00;97720.50;;;2.79;100.00
67373;BME280;54257;54.496;18.412;2023-01-30T10:00:34;97713.00;;;2.86;100.00
67373;BME280;54257;54.496;18.412;2023-01-30T10:03:09;97712.02;;;2.89;100.00
67373;BME280;54257;54.496;18.412;2023-01-30T10:06:00;97708.63;;;2.89;100.00
67373;BME280;54257;54.496;18.412;2023-01-30T10:17:13;97723.98;;;2.74;100.00
67373;BME280;54257;54.496;18.412;2023-01-30T10:25:32;97727.88;;;2.46;100.00
67373;BME280;54257;54.496;18.412;2023-01-30T10:28:10;97723.08;;;2.39;100.00
67373;BME280;54257;54.496;18.412;2023-01-30T10:30:40;97723.99;;;2.33;100.00
67373;BME280;54257;54.496;18.412;2023-01-30T10:33:19;97722.71;;;2.24;100.00
67373;BME280;54257;54.496;18.412;2023-01-30T10:36:06;97720.62;;;2.18;100.00
67373;BME280;54257;54.496;18.412;2023-01-30T10:38:45;97722.09;;;2.14;100.00
67373;BME280;54257;54.496;18.412;2023-01-30T10:41:29;97713.30;;;2.12;100.00
67373;BME280;54257;54.496;18.412;2023-01-30T10:44:13;97711.45;;;2.12;100.00
67373;BME280;54257;54.496;18.412;2023-01-30T10:49:53;97691.80;;;2.44;100.00
67373;BME280;54257;54.496;18.412;2023-01-30T10:52:38;97685.05;;;2.73;100.00
67373;BME280;54257;54.496;18.412;2023-01-30T10:55:23;97681.56;;;2.96;100.00
67373;BME280;54257;54.496;18.412;2023-01-30T11:01:31;97677.73;;;3.41;100.00
67373;BME280;54257;54.496;18.412;2023-01-30T11:04:12;97666.93;;;3.66;100.00
67373;BME280;54257;54.496;18.412;2023-01-30T11:06:41;97662.52;;;3.88;100.00
67373;BME280;54257;54.496;18.412;2023-01-30T11:09:08;97652.32;;;4.10;100.00
67373;BME280;54257;54.496;18.412;2023-01-30T11:11:46;97647.01;;;4.32;100.00
67373;BME280;54257;54.496;18.412;2023-01-30T11:14:15;97644.85;;;4.42;99.97
67373;BME280;54257;54.496;18.412;2023-01-30T11:16:56;97650.92;;;4.39;100.00
67373;BME280;54257;54.496;18.412;2023-01-30T11:19:30;97647.52;;;4.32;99.63
67373;BME280;54257;54.496;18.412;2023-01-30T11:22:04;97643.26;;;4.24;99.55
67373;BME280;54257;54.496;18.412;2023-01-30T11:24:44;97637.48;;;4.17;99.40
67373;BME280;54257;54.496;18.412;2023-01-30T11:27:29;97641.67;;;4.08;99.52
67373;BME280;54257;54.496;18.412;2023-01-30T11:30:14;97641.48;;;4.03;99.78
67373;BME280;54257;54.496;18.412;2023-01-30T11:32:43;97635.37;;;3.97;99.62
67373;BME280;54257;54.496;18.412;2023-01-30T11:37:42;97632.35;;;4.01;100.00
67373;BME280;54257;54.496;18.412;2023-01-30T11:40:27;97625.27;;;4.05;100.00
67373;BME280;54257;54.496;18.412;2023-01-30T11:43:03;97615.46;;;4.05;99.99
67373;BME280;54257;54.496;18.412;2023-01-30T11:45:36;97602.80;;;4.04;99.94
67373;BME280;54257;54.496;18.412;2023-01-30T11:48:10;97597.40;;;4.03;99.16
67373;BME280;54257;54.496;18.412;2023-01-30T11:50:43;97592.49;;;4.00;98.78
67373;BME280;54257;54.496;18.412;2023-01-30T11:53:41;97589.77;;;3.98;98.88
67373;BME280;54257;54.496;18.412;2023-01-30T11:59:04;97585.38;;;3.95;97.26
67373;BME280;54257;54.496;18.412;2023-01-30T12:01:34;97583.69;;;3.93;97.68
67373;BME280;54257;54.496;18.412;2023-01-30T12:04:05;97587.57;;;3.94;98.00
67373;BME280;54257;54.496;18.412;2023-01-30T12:06:38;97582.17;;;3.95;98.16
67373;BME280;54257;54.496;18.412;2023-01-30T12:09:35;97580.14;;;3.92;97.69
67373;BME280;54257;54.496;18.412;2023-01-30T12:14:51;97598.83;;;3.82;98.07
67373;BME280;54257;54.496;18.412;2023-01-30T12:17:38;97593.41;;;3.79;98.89
67373;BME280;54257;54.496;18.412;2023-01-30T12:31:05;97601.22;;;3.55;96.75
67373;BME280;54257;54.496;18.412;2023-01-30T12:33:34;97604.38;;;3.46;97.26
67373;BME280;54257;54.496;18.412;2023-01-30T12:36:40;97607.67;;;3.37;97.63
67373;BME280;54257;54.496;18.412;2023-01-30T12:55:44;97610.87;;;2.91;98.90
67373;BME280;54257;54.496;18.412;2023-01-30T13:14:33;97583.06;;;3.40;98.66
67373;BME280;54257;54.496;18.412;2023-01-30T13:17:52;97585.30;;;3.47;99.22
67373;BME280;54257;54.496;18.412;2023-01-30T13:23:05;97596.27;;;3.48;98.62
67373;BME280;54257;54.496;18.412;2023-01-30T13:25:50;97593.55;;;3.43;98.38
67373;BME280;54257;54.496;18.412;2023-01-30T13:28:47;97584.92;;;3.40;98.82
67373;BME280;54257;54.496;18.412;2023-01-30T13:31:18;97580.86;;;3.36;98.66
67373;BME280;54257;54.496;18.412;2023-01-30T13:33:56;97574.46;;;3.40;99.47
67373;BME280;54257;54.496;18.412;2023-01-30T13:36:42;97570.45;;;3.48;99.12
67373;BME280;54257;54.496;18.412;2023-01-30T13:45:41;97572.74;;;3.65;98.78
67373;BME280;54257;54.496;18.412;2023-01-30T13:54:23;97561.42;;;3.61;97.36
67373;BME280;54257;54.496;18.412;2023-01-30T14:02:24;97580.27;;;3.52;97.13
67373;BME280;54257;54.496;18.412;2023-01-30T14:04:55;97589.89;;;3.50;97.46
67373;BME280;54257;54.496;18.412;2023-01-30T14:07:31;97592.39;;;3.48;97.13
67373;BME280;54257;54.496;18.412;2023-01-30T14:15:23;97594.02;;;3.36;97.98
67373;BME280;54257;54.496;18.412;2023-01-30T14:20:44;97588.39;;;3.26;98.30
67373;BME280;54257;54.496;18.412;2023-01-30T14:25:50;97600.65;;;3.19;98.63
67373;BME280;54257;54.496;18.412;2023-01-30T14:31:03;97594.37;;;3.14;98.43
67373;BME280;54257;54.496;18.412;2023-01-30T14:33:34;97604.98;;;3.12;98.72
67373;BME280;54257;54.496;18.412;2023-01-30T14:38:55;97612.86;;;3.08;98.84
67373;BME280;54257;54.496;18.412;2023-01-30T14:41:30;97620.27;;;3.07;98.59
67373;BME280;54257;54.496;18.412;2023-01-30T14:43:57;97626.52;;;3.05;98.39
67373;BME280;54257;54.496;18.412;2023-01-30T14:49:16;97639.15;;;3.04;97.95
67373;BME280;54257;54.496;18.412;2023-01-30T14:51:46;97646.23;;;3.05;97.96
67373;BME280;54257;54.496;18.412;2023-01-30T14:54:31;97650.95;;;3.04;97.44
67373;BME280;54257;54.496;18.412;2023-01-30T14:57:02;97661.07;;;3.03;96.96
67373;BME280;54257;54.496;18.412;2023-01-30T14:59:39;97656.34;;;3.03;96.98
67373;BME280;54257;54.496;18.412;2023-01-30T15:02:18;97650.27;;;3.02;96.86
67373;BME280;54257;54.496;18.412;2023-01-30T15:10:02;97657.46;;;2.96;96.38
67373;BME280;54257;54.496;18.412;2023-01-30T15:12:38;97657.77;;;2.93;96.57
67373;BME280;54257;54.496;18.412;2023-01-30T15:32:22;97675.34;;;2.63;98.75
67373;BME280;54257;54.496;18.412;2023-01-30T15:34:52;97681.17;;;2.59;99.03
67373;BME280;54257;54.496;18.412;2023-01-30T15:37:48;97676.94;;;2.54;99.27
67373;BME280;54257;54.496;18.412;2023-01-30T15:46:21;97684.76;;;2.46;100.00
67373;BME280;54257;54.496;18.412;2023-01-30T15:49:01;97692.17;;;2.47;99.96
67373;BME280;54257;54.496;18.412;2023-01-30T15:51:33;97704.80;;;2.45;100.00
67373;BME280;54257;54.496;18.412;2023-01-30T15:54:19;97707.16;;;2.47;100.00
67373;BME280;54257;54.496;18.412;2023-01-30T15:56:59;97723.35;;;2.48;100.00
67373;BME280;54257;54.496;18.412;2023-01-30T15:59:36;97724.68;;;2.46;100.00
67373;BME280;54257;54.496;18.412;2023-01-30T16:04:44;97724.81;;;2.44;100.00
67373;BME280;54257;54.496;18.412;2023-01-30T16:07:25;97732.55;;;2.43;100.00
67373;BME280;54257;54.496;18.412;2023-01-30T16:09:56;97725.80;;;2.42;100.00
67373;BME280;54257;54.496;18.412;2023-01-30T16:12:29;97725.26;;;2.39;100.00
67373;BME280;54257;54.496;18.412;2023-01-30T16:14:57;97720.16;;;2.35;100.00